createdAt,value
2022-12-25T00:00:48.106Z,28.02
2022-12-25T00:01:50.759Z,26.67
2022-12-25T00:02:53.344Z,26.57
2022-12-25T00:03:56.024Z,27.89
2022-12-25T00:04:58.708Z,31.07
2022-12-25T00:06:01.304Z,28.47
2022-12-25T00:07:03.825Z,28.69
2022-12-25T00:08:06.360Z,27.31
2022-12-25T00:09:08.882Z,28.09
2022-12-25T00:10:11.720Z,28.18
2022-12-25T00:11:14.303Z,29.06
2022-12-25T00:12:16.851Z,28.05
2022-12-25T00:13:19.355Z,28.79
2022-12-25T00:14:21.895Z,27.95
2022-12-25T00:15:24.427Z,27.43
2022-12-25T00:16:27.584Z,29.29
2022-12-25T00:17:30.365Z,28.03
2022-12-25T00:18:32.898Z,28.05
2022-12-25T00:19:35.430Z,27.80
2022-12-25T00:20:38.368Z,27.49
2022-12-25T00:21:40.946Z,28.43
2022-12-25T00:22:43.479Z,27.52
2022-12-25T00:23:46.041Z,28.22
2022-12-25T00:24:48.538Z,26.92
2022-12-25T00:25:51.122Z,27.25
2022-12-25T00:26:53.887Z,27.24
2022-12-25T00:27:56.394Z,26.57
2022-12-25T00:28:58.924Z,25.77
2022-12-25T00:30:01.472Z,27.83
2022-12-25T00:31:04.114Z,26.99
2022-12-25T00:32:06.838Z,27.25
2022-12-25T00:33:09.373Z,28.01
2022-12-25T00:34:11.939Z,28.87
2022-12-25T00:35:14.461Z,30.21
2022-12-25T00:36:17.196Z,27.84
2022-12-25T00:37:19.824Z,29.30
2022-12-25T00:38:22.561Z,30.64
2022-12-25T00:39:25.120Z,28.56
2022-12-25T00:40:27.875Z,28.92
2022-12-25T00:41:30.414Z,28.91
2022-12-25T00:42:32.988Z,28.65
2022-12-25T00:43:35.558Z,29.24
2022-12-25T00:44:38.251Z,29.18
2022-12-25T00:45:40.808Z,29.82
2022-12-25T00:46:43.969Z,30.85
2022-12-25T00:47:46.602Z,31.07
2022-12-25T00:48:49.411Z,29.40
2022-12-25T00:49:51.945Z,30.72
2022-12-25T00:50:54.887Z,31.00
2022-12-25T00:51:57.747Z,30.46
2022-12-25T00:53:00.373Z,31.52
2022-12-25T00:54:02.865Z,31.95
2022-12-25T00:55:05.478Z,33.55
2022-12-25T00:56:09.188Z,32.09
2022-12-25T00:57:11.725Z,31.56
2022-12-25T00:58:14.293Z,35.37
2022-12-25T00:59:16.855Z,32.48
2022-12-25T01:00:19.503Z,32.83
2022-12-25T01:01:22.265Z,32.58
2022-12-25T01:02:25.741Z,31.71
2022-12-25T01:03:28.882Z,31.99
2022-12-25T01:04:31.728Z,34.11
2022-12-25T01:05:34.243Z,34.45
2022-12-25T01:06:37.121Z,33.49
2022-12-25T01:07:39.685Z,32.13
2022-12-25T01:08:42.267Z,33.94
2022-12-25T01:09:44.802Z,32.03
2022-12-25T01:10:47.744Z,31.81
2022-12-25T01:11:50.295Z,32.36
2022-12-25T01:12:52.810Z,32.43
2022-12-25T01:13:55.383Z,29.93
2022-12-25T01:14:57.920Z,30.05
2022-12-25T01:16:00.472Z,31.82
2022-12-25T01:17:03.012Z,32.85
2022-12-25T01:18:07.921Z,29.69
2022-12-25T01:19:10.265Z,32.44
2022-12-25T01:20:13.300Z,33.41
2022-12-25T01:21:15.834Z,34.73
2022-12-25T01:22:18.521Z,33.35
2022-12-25T01:23:21.067Z,30.78
2022-12-25T01:24:23.635Z,33.89
2022-12-25T01:25:26.306Z,33.41
2022-12-25T01:26:28.946Z,31.41
2022-12-25T01:27:31.573Z,31.83
2022-12-25T01:28:34.211Z,29.55
2022-12-25T01:29:36.784Z,31.06
2022-12-25T01:30:39.624Z,31.59
2022-12-25T01:31:42.264Z,31.11
2022-12-25T01:32:45.034Z,30.24
2022-12-25T01:33:47.609Z,32.13
2022-12-25T01:34:55.623Z,29.67
2022-12-25T01:35:54.510Z,28.95
2022-12-25T01:36:57.248Z,28.80
2022-12-25T01:37:59.784Z,30.47
2022-12-25T01:39:02.325Z,29.38
2022-12-25T01:40:05.304Z,30.84
2022-12-25T01:41:07.935Z,30.64
2022-12-25T01:42:10.468Z,31.40
2022-12-25T01:43:18.578Z,29.38
2022-12-25T01:44:17.435Z,28.89
2022-12-25T01:45:19.980Z,28.87
2022-12-25T01:46:22.875Z,27.33
2022-12-25T01:47:25.842Z,30.18
2022-12-25T01:48:28.383Z,27.61
2022-12-25T01:49:30.918Z,27.99
2022-12-25T01:50:33.807Z,27.26
2022-12-25T01:51:36.346Z,27.69
2022-12-25T01:52:38.925Z,29.89
2022-12-25T01:53:42.083Z,27.02
2022-12-25T01:54:44.598Z,28.56
2022-12-25T01:55:47.173Z,26.83
2022-12-25T01:56:50.130Z,27.23
2022-12-25T01:57:52.949Z,28.77
2022-12-25T01:58:55.504Z,27.31
2022-12-25T01:59:58.022Z,27.87
2022-12-25T02:01:00.828Z,26.04
2022-12-25T02:02:03.407Z,26.66
2022-12-25T02:03:06.173Z,26.14
2022-12-25T02:04:08.821Z,24.36
2022-12-25T02:05:11.353Z,23.97
2022-12-25T02:06:15.350Z,23.98
2022-12-25T02:07:17.890Z,24.63
2022-12-25T02:08:20.449Z,23.48
2022-12-25T02:09:23.279Z,22.68
2022-12-25T02:10:25.994Z,23.77
2022-12-25T02:11:28.481Z,24.38
2022-12-25T02:12:31.008Z,22.46
2022-12-25T02:13:33.748Z,23.98
2022-12-25T02:14:36.280Z,25.09
2022-12-25T02:15:38.819Z,25.37
2022-12-25T02:16:56.609Z,24.87
2022-12-25T02:17:46.105Z,25.89
2022-12-25T02:18:48.655Z,24.90
2022-12-25T02:19:51.177Z,25.68
2022-12-25T02:20:53.914Z,25.42
2022-12-25T02:21:56.485Z,23.89
2022-12-25T02:22:59.024Z,24.05
2022-12-25T02:24:01.562Z,24.82
2022-12-25T02:25:04.100Z,22.74
2022-12-25T02:26:06.933Z,25.20
2022-12-25T02:27:09.495Z,22.71
2022-12-25T02:28:12.037Z,24.45
2022-12-25T02:29:14.563Z,24.83
2022-12-25T02:30:17.297Z,24.00
2022-12-25T02:31:19.885Z,25.04
2022-12-25T02:32:22.438Z,25.47
2022-12-25T02:33:24.960Z,25.29
2022-12-25T02:34:27.500Z,23.98
2022-12-25T02:35:30.035Z,23.91
2022-12-25T02:36:32.775Z,24.07
2022-12-25T02:37:35.364Z,22.81
2022-12-25T02:38:37.899Z,24.07
2022-12-25T02:39:40.444Z,22.81
2022-12-25T02:40:43.066Z,24.91
2022-12-25T02:41:45.613Z,24.65
2022-12-25T02:42:48.090Z,23.41
2022-12-25T02:43:50.630Z,24.14
2022-12-25T02:44:53.180Z,23.65
2022-12-25T02:45:55.727Z,25.03
2022-12-25T02:46:58.454Z,23.74
2022-12-25T02:48:01.009Z,23.31
2022-12-25T02:49:03.592Z,22.03
2022-12-25T02:50:06.497Z,23.62
2022-12-25T02:51:09.055Z,24.87
2022-12-25T02:52:11.563Z,23.39
2022-12-25T02:53:14.149Z,22.99
2022-12-25T02:54:16.682Z,23.98
2022-12-25T02:55:19.232Z,23.76
2022-12-25T02:56:21.894Z,22.67
2022-12-25T02:57:24.457Z,21.79
2022-12-25T02:58:27.043Z,21.93
2022-12-25T02:59:29.606Z,22.37
2022-12-25T03:00:32.579Z,23.47
2022-12-25T03:01:35.254Z,21.17
2022-12-25T03:02:37.962Z,23.50
2022-12-25T03:03:40.622Z,22.41
2022-12-25T03:04:43.281Z,23.89
2022-12-25T03:05:45.811Z,21.92
2022-12-25T03:06:48.689Z,22.15
2022-12-25T03:07:51.194Z,20.93
2022-12-25T03:08:53.778Z,21.14
2022-12-25T03:09:56.327Z,21.95
2022-12-25T03:10:58.959Z,21.86
2022-12-25T03:12:01.492Z,21.25
2022-12-25T03:13:04.045Z,21.13
2022-12-25T03:14:06.593Z,21.45
2022-12-25T03:15:09.124Z,22.47
2022-12-25T03:16:12.384Z,21.22
2022-12-25T03:17:15.232Z,21.87
2022-12-25T03:18:17.758Z,21.15
2022-12-25T03:19:20.385Z,20.93
2022-12-25T03:20:23.329Z,19.36
2022-12-25T03:21:25.910Z,24.02
2022-12-25T03:22:28.548Z,22.23
2022-12-25T03:23:31.075Z,22.70
2022-12-25T03:24:33.652Z,24.09
2022-12-25T03:25:36.223Z,21.61
2022-12-25T03:26:38.962Z,22.50
2022-12-25T03:27:41.502Z,23.70
2022-12-25T03:28:44.038Z,23.13
2022-12-25T03:29:46.599Z,22.69
2022-12-25T03:30:49.348Z,22.29
2022-12-25T03:31:51.881Z,24.97
2022-12-25T03:32:54.433Z,21.53
2022-12-25T03:33:56.974Z,24.06
2022-12-25T03:34:59.560Z,21.49
2022-12-25T03:36:02.085Z,21.88
2022-12-25T03:37:04.611Z,22.06
2022-12-25T03:38:07.137Z,22.03
2022-12-25T03:39:09.682Z,22.20
2022-12-25T03:40:13.173Z,23.41
2022-12-25T03:41:15.697Z,21.19
2022-12-25T03:42:18.233Z,20.86
2022-12-25T03:43:20.783Z,21.58
2022-12-25T03:44:23.320Z,21.47
2022-12-25T03:45:26.212Z,21.77
2022-12-25T03:46:29.179Z,22.27
2022-12-25T03:47:31.750Z,21.22
2022-12-25T03:48:34.286Z,22.93
2022-12-25T03:49:36.716Z,22.79
2022-12-25T03:50:39.496Z,20.62
2022-12-25T03:51:42.023Z,21.20
2022-12-25T03:52:44.588Z,21.92
2022-12-25T03:53:47.120Z,21.45
2022-12-25T03:54:49.652Z,20.51
2022-12-25T03:55:52.219Z,21.21
2022-12-25T03:56:55.153Z,19.05
2022-12-25T03:57:57.792Z,21.22
2022-12-25T03:59:00.315Z,20.42
2022-12-25T04:00:02.881Z,20.01
2022-12-25T04:01:05.491Z,21.44
2022-12-25T04:02:08.198Z,20.63
2022-12-25T04:03:11.006Z,21.34
2022-12-25T04:04:13.551Z,20.36
2022-12-25T04:05:16.097Z,20.41
2022-12-25T04:06:18.646Z,20.65
2022-12-25T04:07:21.166Z,21.91
2022-12-25T04:08:23.606Z,20.00
2022-12-25T04:09:26.133Z,20.61
2022-12-25T04:10:29.295Z,22.41
2022-12-25T04:11:31.845Z,22.75
2022-12-25T04:12:34.372Z,21.47
2022-12-25T04:13:36.803Z,21.79
2022-12-25T04:14:39.336Z,22.78
2022-12-25T04:15:41.890Z,22.05
2022-12-25T04:16:44.798Z,21.02
2022-12-25T04:17:47.334Z,25.30
2022-12-25T04:18:50.072Z,25.76
2022-12-25T04:19:52.585Z,24.35
2022-12-25T04:20:55.322Z,21.73
2022-12-25T04:21:57.890Z,23.93
2022-12-25T04:23:00.429Z,23.98
2022-12-25T04:24:02.971Z,23.23
2022-12-25T04:25:05.505Z,23.01
2022-12-25T04:26:08.333Z,25.67
2022-12-25T04:27:10.803Z,24.47
2022-12-25T04:28:13.350Z,25.69
2022-12-25T04:29:15.866Z,23.84
2022-12-25T04:30:18.714Z,24.57
2022-12-25T04:31:21.311Z,28.42
2022-12-25T04:32:23.896Z,26.26
2022-12-25T04:33:26.450Z,24.59
2022-12-25T04:34:28.976Z,24.82
2022-12-25T04:35:31.516Z,26.89
2022-12-25T04:36:34.450Z,26.61
2022-12-25T04:37:36.924Z,26.41
2022-12-25T04:38:39.446Z,26.59
2022-12-25T04:39:41.995Z,27.88
2022-12-25T04:40:44.816Z,27.06
2022-12-25T04:41:47.348Z,26.13
2022-12-25T04:42:50.057Z,23.96
2022-12-25T04:43:52.597Z,26.65
2022-12-25T04:44:55.150Z,26.09
2022-12-25T04:45:57.739Z,26.99
2022-12-25T04:47:03.523Z,27.55
2022-12-25T04:48:04.931Z,27.15
2022-12-25T04:49:07.516Z,27.29
2022-12-25T04:50:11.384Z,27.71
2022-12-25T04:51:13.987Z,25.35
2022-12-25T04:52:16.520Z,29.07
2022-12-25T04:53:19.079Z,26.75
2022-12-25T04:54:21.619Z,28.43
2022-12-25T04:55:24.173Z,25.47
2022-12-25T04:56:26.703Z,26.46
2022-12-25T04:57:29.235Z,27.05
2022-12-25T04:58:31.812Z,25.53
2022-12-25T04:59:34.374Z,25.99
2022-12-25T05:00:36.978Z,26.11
2022-12-25T05:01:39.622Z,23.57
2022-12-25T05:02:42.646Z,27.36
2022-12-25T05:03:45.558Z,27.95
2022-12-25T05:04:48.066Z,27.53
2022-12-25T05:05:50.609Z,27.44
2022-12-25T05:06:53.129Z,27.09
2022-12-25T05:07:55.655Z,26.51
2022-12-25T05:08:58.234Z,26.66
2022-12-25T05:10:00.781Z,25.49
2022-12-25T05:11:03.317Z,26.27
2022-12-25T05:12:05.852Z,29.43
2022-12-25T05:13:08.381Z,27.91
2022-12-25T05:14:10.958Z,28.43
2022-12-25T05:15:13.907Z,26.26
2022-12-25T05:16:16.909Z,27.26
2022-12-25T05:17:19.780Z,27.69
2022-12-25T05:18:22.214Z,28.07
2022-12-25T05:19:24.786Z,27.14
2022-12-25T05:20:27.538Z,29.38
2022-12-25T05:21:30.110Z,30.03
2022-12-25T05:22:32.848Z,29.74
2022-12-25T05:23:35.402Z,28.60
2022-12-25T05:24:37.976Z,28.39
2022-12-25T05:25:40.527Z,28.10
2022-12-25T05:26:43.249Z,28.93
2022-12-25T05:27:50.286Z,28.99
2022-12-25T05:28:50.450Z,29.71
2022-12-25T05:29:53.017Z,26.85
2022-12-25T05:30:55.797Z,30.04
2022-12-25T05:31:58.388Z,27.99
2022-12-25T05:33:00.945Z,29.79
2022-12-25T05:34:03.483Z,30.11
2022-12-25T05:35:06.064Z,28.41
2022-12-25T05:36:10.027Z,30.08
2022-12-25T05:37:12.551Z,30.75
2022-12-25T05:38:15.096Z,28.97
2022-12-25T05:39:17.654Z,29.02
2022-12-25T05:40:20.409Z,28.60
2022-12-25T05:41:23.158Z,32.82
2022-12-25T05:42:25.701Z,30.82
2022-12-25T05:43:28.267Z,31.12
2022-12-25T05:44:30.801Z,30.95
2022-12-25T05:45:33.376Z,29.24
2022-12-25T05:46:36.199Z,27.45
2022-12-25T05:47:38.758Z,29.90
2022-12-25T05:48:41.299Z,26.74
2022-12-25T05:49:43.854Z,28.80
2022-12-25T05:50:47.169Z,30.76
2022-12-25T05:51:49.696Z,29.30
2022-12-25T05:52:52.433Z,30.18
2022-12-25T05:53:54.975Z,29.48
2022-12-25T05:54:57.510Z,31.11
2022-12-25T05:56:00.109Z,30.14
2022-12-25T05:57:02.663Z,31.64
2022-12-25T05:58:05.173Z,30.02
2022-12-25T05:59:07.712Z,29.79
2022-12-25T06:00:11.367Z,35.37
2022-12-25T06:01:14.158Z,38.94
2022-12-25T06:02:16.764Z,34.55
2022-12-25T06:03:19.821Z,33.81
2022-12-25T06:04:22.385Z,32.89
2022-12-25T06:05:24.949Z,34.23
2022-12-25T06:06:28.033Z,33.68
2022-12-25T06:07:30.566Z,33.63
2022-12-25T06:08:33.119Z,31.06
2022-12-25T06:09:35.641Z,31.34
2022-12-25T06:10:38.424Z,33.09
2022-12-25T06:11:40.969Z,32.43
2022-12-25T06:12:43.496Z,31.73
2022-12-25T06:13:46.055Z,32.89
2022-12-25T06:14:48.593Z,32.73
2022-12-25T06:15:51.168Z,32.37
2022-12-25T06:16:53.952Z,32.34
2022-12-25T06:17:56.765Z,31.97
2022-12-25T06:18:59.274Z,33.27
2022-12-25T06:20:01.838Z,31.03
2022-12-25T06:21:04.366Z,31.13
2022-12-25T06:22:06.922Z,33.57
2022-12-25T06:23:09.838Z,33.33
2022-12-25T06:24:19.184Z,32.56
2022-12-25T06:25:16.852Z,31.66
2022-12-25T06:26:19.628Z,32.93
2022-12-25T06:27:22.395Z,33.38
2022-12-25T06:28:24.922Z,31.50
2022-12-25T06:29:27.464Z,32.39
2022-12-25T06:30:30.230Z,33.26
2022-12-25T06:31:32.793Z,31.91
2022-12-25T06:32:35.347Z,32.74
2022-12-25T06:33:37.903Z,33.21
2022-12-25T06:34:40.401Z,31.37
2022-12-25T06:35:42.940Z,30.81
2022-12-25T06:36:45.687Z,31.11
2022-12-25T06:37:48.266Z,31.01
2022-12-25T06:38:50.818Z,29.34
2022-12-25T06:39:53.309Z,30.11
2022-12-25T06:40:56.148Z,30.14
2022-12-25T06:41:58.685Z,29.79
2022-12-25T06:43:01.564Z,29.93
2022-12-25T06:44:04.106Z,29.99
2022-12-25T06:45:06.659Z,30.37
2022-12-25T06:46:09.976Z,27.91
2022-12-25T06:47:12.739Z,28.15
2022-12-25T06:48:15.321Z,29.62
2022-12-25T06:49:17.855Z,28.20
2022-12-25T06:50:20.695Z,27.32
2022-12-25T06:51:23.230Z,26.59
2022-12-25T06:52:25.789Z,25.49
2022-12-25T06:53:32.228Z,26.95
2022-12-25T06:54:32.692Z,24.69
2022-12-25T06:55:35.131Z,26.00
2022-12-25T06:56:37.967Z,24.16
2022-12-25T06:57:40.548Z,24.60
2022-12-25T06:58:43.121Z,24.53
2022-12-25T06:59:49.913Z,24.37
2022-12-25T07:00:50.563Z,23.91
2022-12-25T07:01:53.380Z,24.53
2022-12-25T07:02:56.354Z,24.39
2022-12-25T07:03:59.115Z,24.39
2022-12-25T07:05:01.665Z,23.82
2022-12-25T07:06:04.399Z,21.56
2022-12-25T07:07:09.231Z,22.04
2022-12-25T07:08:11.301Z,21.88
2022-12-25T07:09:13.931Z,22.07
2022-12-25T07:10:18.237Z,22.72
2022-12-25T07:11:20.798Z,21.09
2022-12-25T07:12:23.337Z,22.32
2022-12-25T07:13:26.238Z,21.55
2022-12-25T07:14:28.957Z,21.74
2022-12-25T07:15:31.489Z,20.25
2022-12-25T07:16:34.289Z,20.44
2022-12-25T07:17:36.885Z,20.22
2022-12-25T07:18:39.668Z,17.93
2022-12-25T07:19:45.137Z,19.60
2022-12-25T07:20:47.063Z,19.50
2022-12-25T07:21:49.767Z,18.31
2022-12-25T07:22:52.313Z,18.83
2022-12-25T07:23:54.892Z,18.67
2022-12-25T07:24:57.521Z,19.07
2022-12-25T07:26:00.018Z,18.15
2022-12-25T07:27:02.544Z,19.01
2022-12-25T07:28:05.089Z,20.49
2022-12-25T07:29:07.624Z,18.95
2022-12-25T07:30:11.747Z,20.04
2022-12-25T07:31:14.341Z,19.95
2022-12-25T07:32:17.138Z,21.02
2022-12-25T07:33:19.958Z,20.30
2022-12-25T07:34:26.972Z,19.91
2022-12-25T07:35:31.357Z,20.19
2022-12-25T07:36:34.187Z,20.04
2022-12-25T07:37:36.747Z,19.23
2022-12-25T07:38:39.247Z,20.45
2022-12-25T07:39:41.780Z,19.34
2022-12-25T07:40:44.547Z,21.40
2022-12-25T07:41:47.075Z,21.14
2022-12-25T07:42:49.610Z,20.95
2022-12-25T07:43:52.145Z,19.27
2022-12-25T07:44:54.672Z,21.57
2022-12-25T07:45:57.200Z,20.83
2022-12-25T07:47:00.806Z,20.40
2022-12-25T07:48:05.832Z,21.09
2022-12-25T07:49:07.736Z,20.64
2022-12-25T07:50:10.468Z,22.42
2022-12-25T07:51:13.030Z,24.67
2022-12-25T07:52:15.566Z,21.51
2022-12-25T07:53:18.157Z,20.55
2022-12-25T07:54:20.693Z,21.28
2022-12-25T07:55:23.220Z,21.37
2022-12-25T07:56:26.467Z,21.36
2022-12-25T07:57:29.030Z,19.51
2022-12-25T07:58:31.561Z,19.94
2022-12-25T07:59:34.121Z,22.13
2022-12-25T08:00:37.088Z,22.04
2022-12-25T08:01:40.023Z,19.40
2022-12-25T08:02:42.939Z,20.20
2022-12-25T08:03:45.731Z,21.89
2022-12-25T08:04:48.400Z,21.39
2022-12-25T08:05:50.933Z,23.17
2022-12-25T08:06:53.704Z,23.47
2022-12-25T08:07:58.015Z,24.89
2022-12-25T08:09:00.607Z,24.45
2022-12-25T08:10:03.235Z,28.20
2022-12-25T08:11:05.755Z,31.43
2022-12-25T08:12:08.318Z,30.85
2022-12-25T08:13:14.433Z,31.59
2022-12-25T08:14:15.208Z,30.26
2022-12-25T08:15:17.731Z,30.21
2022-12-25T08:16:20.806Z,30.63
2022-12-25T08:17:23.534Z,31.61
2022-12-25T08:18:29.926Z,34.31
2022-12-25T08:19:30.686Z,31.96
2022-12-25T08:20:33.635Z,33.48
2022-12-25T08:21:36.200Z,34.98
2022-12-25T08:22:38.771Z,31.86
2022-12-25T08:23:41.340Z,34.22
2022-12-25T08:24:43.767Z,33.06
2022-12-25T08:25:46.317Z,33.23
2022-12-25T08:26:49.031Z,32.60
2022-12-25T08:27:51.606Z,34.76
2022-12-25T08:28:54.139Z,35.27
2022-12-25T08:29:56.696Z,33.95
2022-12-25T08:30:59.761Z,33.31
2022-12-25T08:32:02.384Z,31.81
2022-12-25T08:33:04.922Z,32.23
2022-12-25T08:34:07.352Z,35.03
2022-12-25T08:35:09.902Z,33.89
2022-12-25T08:36:13.353Z,36.58
2022-12-25T08:37:15.866Z,35.70
2022-12-25T08:38:18.429Z,35.63
2022-12-25T08:39:21.012Z,34.93
2022-12-25T08:40:23.755Z,35.26
2022-12-25T08:41:26.292Z,34.57
2022-12-25T08:42:28.833Z,35.69
2022-12-25T08:43:31.397Z,33.89
2022-12-25T08:44:33.927Z,35.79
2022-12-25T08:45:36.457Z,35.47
2022-12-25T08:46:39.143Z,39.48
2022-12-25T08:47:41.859Z,34.60
2022-12-25T08:48:44.463Z,35.54
2022-12-25T08:49:47.035Z,35.24
2022-12-25T08:50:50.350Z,37.03
2022-12-25T08:51:52.913Z,37.41
2022-12-25T08:52:55.435Z,36.91
2022-12-25T08:53:58.130Z,37.45
2022-12-25T08:55:00.674Z,37.07
2022-12-25T08:56:03.411Z,38.04
2022-12-25T08:57:05.954Z,38.55
2022-12-25T08:58:08.482Z,40.09
2022-12-25T08:59:11.526Z,40.94
2022-12-25T09:00:14.782Z,36.82
2022-12-25T09:01:17.395Z,40.51
2022-12-25T09:02:20.245Z,39.64
2022-12-25T09:03:23.205Z,40.91
2022-12-25T09:04:26.069Z,40.73
2022-12-25T09:05:28.595Z,40.10
2022-12-25T09:06:31.359Z,47.73
2022-12-25T09:07:33.888Z,44.59
2022-12-25T09:08:38.001Z,41.73
2022-12-25T09:09:41.014Z,39.78
2022-12-25T09:10:43.858Z,41.63
2022-12-25T09:11:46.399Z,41.81
2022-12-25T09:12:49.050Z,40.00
2022-12-25T09:13:51.549Z,50.48
2022-12-25T09:14:54.159Z,50.33
2022-12-25T09:15:56.742Z,46.01
2022-12-25T09:16:59.970Z,37.79
2022-12-25T09:18:02.525Z,38.81
2022-12-25T09:19:05.050Z,39.78
2022-12-25T09:20:07.937Z,37.40
2022-12-25T09:21:10.505Z,37.88
2022-12-25T09:22:13.055Z,37.59
2022-12-25T09:23:15.596Z,36.81
2022-12-25T09:24:18.119Z,35.02
2022-12-25T09:25:20.701Z,35.97
2022-12-25T09:26:23.368Z,36.96
2022-12-25T09:27:25.875Z,35.91
2022-12-25T09:28:28.506Z,37.02
2022-12-25T09:29:31.042Z,36.40
2022-12-25T09:30:34.082Z,38.18
2022-12-25T09:31:36.718Z,36.68
2022-12-25T09:32:39.235Z,35.51
2022-12-25T09:33:41.771Z,39.44
2022-12-25T09:34:44.403Z,40.33
2022-12-25T09:35:47.107Z,36.83
2022-12-25T09:36:50.053Z,36.84
2022-12-25T09:37:52.509Z,36.69
2022-12-25T09:38:55.039Z,38.21
2022-12-25T09:39:57.590Z,38.80
2022-12-25T09:41:00.372Z,41.14
2022-12-25T09:42:02.993Z,50.36
2022-12-25T09:43:05.611Z,54.88
2022-12-25T09:44:08.154Z,49.90
2022-12-25T09:45:10.695Z,55.27
2022-12-25T09:46:14.715Z,62.74
2022-12-25T09:47:17.313Z,58.75
2022-12-25T09:48:19.845Z,50.53
2022-12-25T09:49:22.406Z,49.25
2022-12-25T09:50:25.049Z,49.85
2022-12-25T09:51:27.632Z,53.87
2022-12-25T09:52:30.226Z,44.53
2022-12-25T09:53:32.771Z,36.57
2022-12-25T09:54:35.432Z,38.78
2022-12-25T09:55:37.987Z,34.28
2022-12-25T09:56:40.808Z,39.52
2022-12-25T09:57:43.348Z,38.45
2022-12-25T09:58:45.896Z,44.51
2022-12-25T09:59:48.434Z,44.15
2022-12-25T10:00:51.088Z,40.82
2022-12-25T10:01:53.782Z,37.93
2022-12-25T10:02:56.602Z,38.23
2022-12-25T10:03:59.401Z,37.53
2022-12-25T10:05:02.117Z,44.94
2022-12-25T10:06:05.090Z,42.91
2022-12-25T10:07:07.651Z,40.79
2022-12-25T10:08:10.186Z,40.11
2022-12-25T10:09:12.960Z,39.70
2022-12-25T10:10:16.003Z,44.12
2022-12-25T10:11:18.531Z,44.85
2022-12-25T10:12:21.127Z,42.83
2022-12-25T10:13:23.723Z,44.54
2022-12-25T10:14:26.255Z,40.78
2022-12-25T10:15:28.806Z,42.81
2022-12-25T10:16:31.825Z,40.23
2022-12-25T10:17:34.423Z,39.25
2022-12-25T10:18:36.951Z,39.39
2022-12-25T10:19:39.483Z,39.75
2022-12-25T10:20:42.728Z,35.78
2022-12-25T10:21:45.281Z,41.04
2022-12-25T10:22:47.860Z,35.57
2022-12-25T10:23:50.432Z,36.03
2022-12-25T10:24:52.964Z,34.93
2022-12-25T10:25:55.570Z,34.05
2022-12-25T10:26:58.474Z,33.99
2022-12-25T10:28:01.075Z,32.62
2022-12-25T10:29:03.651Z,32.65
2022-12-25T10:30:06.480Z,32.66
2022-12-25T10:31:09.248Z,31.54
2022-12-25T10:32:12.137Z,32.23
2022-12-25T10:33:17.155Z,33.75
2022-12-25T10:34:19.210Z,34.72
2022-12-25T10:35:21.831Z,35.37
2022-12-25T10:36:24.580Z,34.90
2022-12-25T10:37:27.215Z,33.62
2022-12-25T10:38:29.793Z,36.91
2022-12-25T10:39:32.322Z,38.11
2022-12-25T10:40:34.996Z,34.83
2022-12-25T10:41:37.500Z,33.90
2022-12-25T10:42:40.036Z,36.96
2022-12-25T10:43:42.529Z,36.90
2022-12-25T10:44:45.052Z,35.63
2022-12-25T10:45:47.945Z,35.97
2022-12-25T10:46:50.775Z,36.73
2022-12-25T10:48:00.735Z,36.33
2022-12-25T10:48:57.751Z,35.39
2022-12-25T10:50:00.237Z,37.08
2022-12-25T10:51:02.800Z,34.51
2022-12-25T10:52:05.337Z,34.19
2022-12-25T10:53:07.875Z,32.19
2022-12-25T10:54:10.496Z,35.13
2022-12-25T10:55:13.004Z,35.09
2022-12-25T10:56:16.625Z,32.64
2022-12-25T10:57:19.165Z,33.57
2022-12-25T10:58:21.916Z,32.79
2022-12-25T10:59:24.851Z,35.27
2022-12-25T11:00:27.546Z,33.41
2022-12-25T11:01:30.200Z,34.84
2022-12-25T11:02:32.994Z,38.08
2022-12-25T11:03:36.021Z,36.16
2022-12-25T11:04:39.209Z,38.74
2022-12-25T11:05:41.746Z,37.13
2022-12-25T11:06:44.789Z,38.87
2022-12-25T11:07:47.642Z,36.66
2022-12-25T11:08:50.175Z,35.64
2022-12-25T11:09:53.859Z,33.99
2022-12-25T11:10:57.366Z,32.39
2022-12-25T11:11:59.904Z,32.70
2022-12-25T11:13:02.453Z,32.88
2022-12-25T11:14:05.036Z,31.54
2022-12-25T11:15:07.600Z,29.64
2022-12-25T11:16:10.759Z,31.83
2022-12-25T11:17:13.674Z,31.89
2022-12-25T11:18:16.219Z,30.99
2022-12-25T11:19:18.805Z,32.06
2022-12-25T11:20:21.622Z,31.93
2022-12-25T11:21:24.281Z,31.74
2022-12-25T11:22:26.814Z,31.98
2022-12-25T11:23:29.364Z,35.35
2022-12-25T11:24:31.953Z,33.42
2022-12-25T11:25:34.504Z,33.61
2022-12-25T11:26:37.586Z,33.29
2022-12-25T11:27:40.111Z,34.41
2022-12-25T11:28:42.675Z,36.05
2022-12-25T11:29:45.301Z,35.83
2022-12-25T11:30:48.030Z,31.93
2022-12-25T11:31:50.738Z,32.33
2022-12-25T11:32:53.446Z,31.38
2022-12-25T11:33:56.288Z,32.28
2022-12-25T11:34:58.828Z,33.39
2022-12-25T11:36:01.406Z,34.26
2022-12-25T11:37:04.069Z,33.33
2022-12-25T11:38:06.602Z,33.37
2022-12-25T11:39:09.136Z,32.75
2022-12-25T11:40:13.317Z,34.11
2022-12-25T11:41:15.881Z,32.87
2022-12-25T11:42:18.418Z,35.11
2022-12-25T11:43:20.961Z,31.57
2022-12-25T11:44:23.511Z,35.65
2022-12-25T11:45:26.060Z,35.33
2022-12-25T11:46:29.114Z,32.90
2022-12-25T11:47:32.033Z,34.05
2022-12-25T11:48:34.607Z,33.62
2022-12-25T11:49:37.185Z,32.03
2022-12-25T11:50:40.232Z,34.94
2022-12-25T11:51:42.836Z,36.45
2022-12-25T11:52:45.413Z,35.97
2022-12-25T11:53:47.961Z,35.68
2022-12-25T11:54:50.818Z,36.26
2022-12-25T11:55:53.373Z,33.91
2022-12-25T11:56:55.952Z,36.08
2022-12-25T11:57:58.489Z,36.48
2022-12-25T11:59:01.023Z,34.61
2022-12-25T12:00:03.673Z,36.63
2022-12-25T12:01:06.206Z,34.26
2022-12-25T12:02:08.862Z,36.15
2022-12-25T12:03:11.781Z,36.21
2022-12-25T12:04:14.411Z,36.43
2022-12-25T12:05:16.979Z,34.01
2022-12-25T12:06:20.595Z,34.91
2022-12-25T12:07:23.345Z,32.62
2022-12-25T12:08:25.891Z,36.07
2022-12-25T12:09:28.421Z,35.13
2022-12-25T12:10:31.298Z,36.87
2022-12-25T12:11:33.845Z,39.83
2022-12-25T12:12:36.393Z,36.90
2022-12-25T12:13:38.921Z,38.69
2022-12-25T12:14:41.484Z,37.63
2022-12-25T12:15:44.048Z,37.27
2022-12-25T12:16:46.702Z,37.69
2022-12-25T12:17:49.349Z,38.82
2022-12-25T12:18:51.879Z,38.61
2022-12-25T12:19:54.734Z,37.36
2022-12-25T12:20:57.709Z,36.51
2022-12-25T12:22:00.197Z,38.59
2022-12-25T12:23:02.676Z,38.70
2022-12-25T12:24:05.206Z,34.67
2022-12-25T12:25:07.742Z,34.72
2022-12-25T12:26:10.681Z,33.41
2022-12-25T12:27:13.126Z,31.92
2022-12-25T12:28:15.718Z,33.03
2022-12-25T12:29:18.155Z,32.16
2022-12-25T12:30:20.820Z,32.70
2022-12-25T12:31:23.362Z,29.79
2022-12-25T12:32:25.909Z,33.47
2022-12-25T12:33:28.702Z,31.32
2022-12-25T12:34:31.247Z,31.41
2022-12-25T12:35:33.808Z,31.45
2022-12-25T12:36:37.021Z,32.41
2022-12-25T12:37:39.799Z,32.03
2022-12-25T12:38:42.500Z,33.81
2022-12-25T12:39:45.041Z,33.73
2022-12-25T12:40:47.777Z,32.33
2022-12-25T12:41:50.324Z,32.02
2022-12-25T12:42:52.895Z,31.63
2022-12-25T12:43:55.549Z,32.54
2022-12-25T12:44:58.070Z,30.88
2022-12-25T12:46:00.647Z,29.34
2022-12-25T12:47:03.447Z,29.82
2022-12-25T12:48:05.981Z,29.73
2022-12-25T12:49:08.748Z,29.22
2022-12-25T12:50:12.703Z,29.54
2022-12-25T12:51:15.243Z,29.70
2022-12-25T12:52:17.784Z,30.83
2022-12-25T12:53:20.315Z,30.43
2022-12-25T12:54:22.929Z,27.37
2022-12-25T12:55:25.476Z,30.80
2022-12-25T12:56:28.105Z,28.21
2022-12-25T12:57:30.658Z,32.22
2022-12-25T12:58:33.206Z,31.93
2022-12-25T12:59:35.745Z,30.11
2022-12-25T13:00:38.518Z,29.46
2022-12-25T13:01:41.126Z,29.90
2022-12-25T13:02:43.893Z,28.52
2022-12-25T13:03:46.548Z,30.64
2022-12-25T13:04:49.156Z,31.38
2022-12-25T13:05:51.686Z,31.29
2022-12-25T13:06:54.627Z,29.84
2022-12-25T13:07:57.194Z,28.13
2022-12-25T13:08:59.691Z,29.68
2022-12-25T13:10:02.573Z,30.80
2022-12-25T13:11:05.134Z,29.19
2022-12-25T13:12:07.619Z,31.79
2022-12-25T13:13:10.153Z,28.42
2022-12-25T13:14:12.727Z,28.03
2022-12-25T13:15:15.309Z,25.77
2022-12-25T13:16:18.817Z,31.16
2022-12-25T13:17:21.307Z,27.65
2022-12-25T13:18:23.838Z,24.36
2022-12-25T13:19:26.403Z,26.66
2022-12-25T13:20:29.531Z,26.68
2022-12-25T13:21:32.068Z,26.13
2022-12-25T13:22:34.635Z,26.34
2022-12-25T13:23:37.188Z,24.11
2022-12-25T13:24:39.703Z,25.69
2022-12-25T13:25:42.272Z,24.76
2022-12-25T13:26:45.220Z,24.52
2022-12-25T13:27:47.767Z,26.36